Boston, Massachusetts
Traffic Map
Current Weather Conditions
Boston, Massachusetts
Broken Clouds
Broken Clouds
22°
Feels Like: 22°
Wind Chill: 22° Ceiling: 25000
Heat Index: 22° Visibility: 10mi
Dew Point: 14° Wind: 16mph
Humidity: 61% Direction: 300° (WNW)
Pressure: 29.85in Gusts: 0mph
Raw Report DataKBOS 240254Z 30014KT 10SM SCT170 BKN250 22/14 A2985 RMK AO2 SLP106 T02220144 53013
Traffic Incident Summary
Active as of:
Severity:
Category:
InformationThere was an issue retrieving the traffic information for this location. Please try a different location or try again shortly.
Advertisements
Track Severe Weather on mobile